sensor_id;sensor_type;location;lat;lon;timestamp;P1;durP1;ratioP1;P2;durP2;ratioP2
72373;SDS011;60349;64.132;-21.820;2023-04-24T00:01:54;1.45;;;0.10;;
72373;SDS011;60349;64.132;-21.820;2023-04-24T00:04:21;0.80;;;0.08;;
72373;SDS011;60349;64.132;-21.820;2023-04-24T00:06:50;1.88;;;0.10;;
72373;SDS011;60349;64.132;-21.820;2023-04-24T00:09:19;3.83;;;0.15;;
72373;SDS011;60349;64.132;-21.820;2023-04-24T00:11:45;1.42;;;0.10;;
72373;SDS011;60349;64.132;-21.820;2023-04-24T00:14:11;2.17;;;0.10;;
72373;SDS011;60349;64.132;-21.820;2023-04-24T00:16:37;2.80;;;0.10;;
72373;SDS011;60349;64.132;-21.820;2023-04-24T00:19:04;3.78;;;0.10;;
72373;SDS011;60349;64.132;-21.820;2023-04-24T00:21:31;2.28;;;0.10;;
72373;SDS011;60349;64.132;-21.820;2023-04-24T00:23:57;3.55;;;0.10;;
72373;SDS011;60349;64.132;-21.820;2023-04-24T00:26:24;2.65;;;0.30;;
72373;SDS011;60349;64.132;-21.820;2023-04-24T00:28:50;2.83;;;0.10;;
72373;SDS011;60349;64.132;-21.820;2023-04-24T00:31:16;0.68;;;0.10;;
72373;SDS011;60349;64.132;-21.820;2023-04-24T00:33:42;2.92;;;0.08;;
72373;SDS011;60349;64.132;-21.820;2023-04-24T00:36:08;0.68;;;0.08;;
72373;SDS011;60349;64.132;-21.820;2023-04-24T00:38:34;1.27;;;0.10;;
72373;SDS011;60349;64.132;-21.820;2023-04-24T00:41:01;1.50;;;0.10;;
72373;SDS011;60349;64.132;-21.820;2023-04-24T00:43:27;1.55;;;0.10;;
72373;SDS011;60349;64.132;-21.820;2023-04-24T00:45:53;2.78;;;0.60;;
72373;SDS011;60349;64.132;-21.820;2023-04-24T00:48:20;5.35;;;0.90;;
72373;SDS011;60349;64.132;-21.820;2023-04-24T00:50:46;3.55;;;0.90;;
72373;SDS011;60349;64.132;-21.820;2023-04-24T00:53:12;7.05;;;1.73;;
72373;SDS011;60349;64.132;-21.820;2023-04-24T00:55:38;8.43;;;1.17;;
72373;SDS011;60349;64.132;-21.820;2023-04-24T00:58:05;7.65;;;1.83;;
72373;SDS011;60349;64.132;-21.820;2023-04-24T01:00:31;4.43;;;1.50;;
72373;SDS011;60349;64.132;-21.820;2023-04-24T01:02:57;4.80;;;2.35;;
72373;SDS011;60349;64.132;-21.820;2023-04-24T01:05:25;6.78;;;2.28;;
72373;SDS011;60349;64.132;-21.820;2023-04-24T01:07:51;5.07;;;2.72;;
72373;SDS011;60349;64.132;-21.820;2023-04-24T01:10:18;4.38;;;2.22;;
72373;SDS011;60349;64.132;-21.820;2023-04-24T01:12:45;8.48;;;2.65;;
72373;SDS011;60349;64.132;-21.820;2023-04-24T01:15:11;5.68;;;2.63;;
72373;SDS011;60349;64.132;-21.820;2023-04-24T01:17:38;5.70;;;2.28;;
72373;SDS011;60349;64.132;-21.820;2023-04-24T01:20:04;3.33;;;1.38;;
72373;SDS011;60349;64.132;-21.820;2023-04-24T01:22:31;3.38;;;1.05;;
72373;SDS011;60349;64.132;-21.820;2023-04-24T01:24:58;3.25;;;1.05;;
72373;SDS011;60349;64.132;-21.820;2023-04-24T01:27:24;7.45;;;1.30;;
72373;SDS011;60349;64.132;-21.820;2023-04-24T01:29:50;5.57;;;0.85;;
72373;SDS011;60349;64.132;-21.820;2023-04-24T01:32:17;2.05;;;0.70;;
72373;SDS011;60349;64.132;-21.820;2023-04-24T01:34:43;3.00;;;1.20;;
72373;SDS011;60349;64.132;-21.820;2023-04-24T01:37:10;3.20;;;0.73;;
72373;SDS011;60349;64.132;-21.820;2023-04-24T01:39:36;2.95;;;0.80;;
72373;SDS011;60349;64.132;-21.820;2023-04-24T01:42:02;4.22;;;0.90;;
72373;SDS011;60349;64.132;-21.820;2023-04-24T01:44:28;8.10;;;1.67;;
72373;SDS011;60349;64.132;-21.820;2023-04-24T01:46:54;7.07;;;1.30;;
72373;SDS011;60349;64.132;-21.820;2023-04-24T01:49:21;4.30;;;0.82;;
72373;SDS011;60349;64.132;-21.820;2023-04-24T01:51:47;5.43;;;1.45;;
72373;SDS011;60349;64.132;-21.820;2023-04-24T01:54:13;2.97;;;0.47;;
72373;SDS011;60349;64.132;-21.820;2023-04-24T01:56:43;1.83;;;0.60;;
72373;SDS011;60349;64.132;-21.820;2023-04-24T01:59:09;2.38;;;0.22;;
72373;SDS011;60349;64.132;-21.820;2023-04-24T02:01:36;0.85;;;0.20;;
72373;SDS011;60349;64.132;-21.820;2023-04-24T02:04:03;1.02;;;0.20;;
72373;SDS011;60349;64.132;-21.820;2023-04-24T02:06:29;1.13;;;0.20;;
72373;SDS011;60349;64.132;-21.820;2023-04-24T02:08:59;2.22;;;0.10;;
72373;SDS011;60349;64.132;-21.820;2023-04-24T02:11:26;0.68;;;0.10;;
72373;SDS011;60349;64.132;-21.820;2023-04-24T02:13:52;0.65;;;0.10;;
72373;SDS011;60349;64.132;-21.820;2023-04-24T02:16:20;0.30;;;0.00;;
72373;SDS011;60349;64.132;-21.820;2023-04-24T02:18:46;0.60;;;0.00;;
72373;SDS011;60349;64.132;-21.820;2023-04-24T02:21:12;0.35;;;0.00;;
72373;SDS011;60349;64.132;-21.820;2023-04-24T02:23:38;0.50;;;0.20;;
72373;SDS011;60349;64.132;-21.820;2023-04-24T02:26:04;0.32;;;0.00;;
72373;SDS011;60349;64.132;-21.820;2023-04-24T02:28:30;0.60;;;0.00;;
72373;SDS011;60349;64.132;-21.820;2023-04-24T02:30:56;0.20;;;0.00;;
72373;SDS011;60349;64.132;-21.820;2023-04-24T02:33:23;1.27;;;0.00;;
72373;SDS011;60349;64.132;-21.820;2023-04-24T02:35:49;0.10;;;0.00;;
72373;SDS011;60349;64.132;-21.820;2023-04-24T02:38:15;0.30;;;0.00;;
72373;SDS011;60349;64.132;-21.820;2023-04-24T02:40:41;0.20;;;0.00;;
72373;SDS011;60349;64.132;-21.820;2023-04-24T02:43:08;1.92;;;0.00;;
72373;SDS011;60349;64.132;-21.820;2023-04-24T02:45:34;0.20;;;0.00;;
72373;SDS011;60349;64.132;-21.820;2023-04-24T02:48:00;1.10;;;0.00;;
72373;SDS011;60349;64.132;-21.820;2023-04-24T02:50:26;1.45;;;0.00;;
72373;SDS011;60349;64.132;-21.820;2023-04-24T02:52:52;0.32;;;0.00;;
72373;SDS011;60349;64.132;-21.820;2023-04-24T02:55:19;0.15;;;0.00;;
72373;SDS011;60349;64.132;-21.820;2023-04-24T02:57:45;0.60;;;0.00;;
72373;SDS011;60349;64.132;-21.820;2023-04-24T03:00:11;1.67;;;0.00;;
72373;SDS011;60349;64.132;-21.820;2023-04-24T03:02:38;0.15;;;0.00;;
72373;SDS011;60349;64.132;-21.820;2023-04-24T03:05:04;0.13;;;0.00;;
72373;SDS011;60349;64.132;-21.820;2023-04-24T03:07:30;0.13;;;0.00;;
72373;SDS011;60349;64.132;-21.820;2023-04-24T03:09:57;1.85;;;0.00;;
72373;SDS011;60349;64.132;-21.820;2023-04-24T03:12:23;0.20;;;0.00;;
72373;SDS011;60349;64.132;-21.820;2023-04-24T03:14:49;1.48;;;0.00;;
72373;SDS011;60349;64.132;-21.820;2023-04-24T03:17:16;0.52;;;0.00;;
72373;SDS011;60349;64.132;-21.820;2023-04-24T03:19:42;0.63;;;0.00;;
72373;SDS011;60349;64.132;-21.820;2023-04-24T03:22:08;0.70;;;0.00;;
72373;SDS011;60349;64.132;-21.820;2023-04-24T03:24:34;0.85;;;0.00;;
72373;SDS011;60349;64.132;-21.820;2023-04-24T03:27:00;1.63;;;0.00;;
72373;SDS011;60349;64.132;-21.820;2023-04-24T03:29:26;0.30;;;0.00;;
72373;SDS011;60349;64.132;-21.820;2023-04-24T03:31:52;0.20;;;0.00;;
72373;SDS011;60349;64.132;-21.820;2023-04-24T03:34:18;0.77;;;0.00;;
72373;SDS011;60349;64.132;-21.820;2023-04-24T03:36:44;0.32;;;0.00;;
72373;SDS011;60349;64.132;-21.820;2023-04-24T03:39:12;0.30;;;0.00;;
72373;SDS011;60349;64.132;-21.820;2023-04-24T03:41:39;2.80;;;0.40;;
72373;SDS011;60349;64.132;-21.820;2023-04-24T03:44:05;0.38;;;0.00;;
72373;SDS011;60349;64.132;-21.820;2023-04-24T03:46:31;0.73;;;0.35;;
72373;SDS011;60349;64.132;-21.820;2023-04-24T03:48:57;0.17;;;0.00;;
72373;SDS011;60349;64.132;-21.820;2023-04-24T03:51:23;0.57;;;0.00;;
72373;SDS011;60349;64.132;-21.820;2023-04-24T03:53:50;0.63;;;0.00;;
72373;SDS011;60349;64.132;-21.820;2023-04-24T03:56:16;0.20;;;0.00;;
72373;SDS011;60349;64.132;-21.820;2023-04-24T03:58:42;0.60;;;0.00;;
72373;SDS011;60349;64.132;-21.820;2023-04-24T04:01:08;0.60;;;0.00;;
72373;SDS011;60349;64.132;-21.820;2023-04-24T04:03:36;0.22;;;0.00;;
72373;SDS011;60349;64.132;-21.820;2023-04-24T04:06:02;0.43;;;0.00;;
72373;SDS011;60349;64.132;-21.820;2023-04-24T04:08:29;0.50;;;0.00;;
72373;SDS011;60349;64.132;-21.820;2023-04-24T04:10:55;0.28;;;0.00;;
72373;SDS011;60349;64.132;-21.820;2023-04-24T04:13:21;0.13;;;0.00;;
72373;SDS011;60349;64.132;-21.820;2023-04-24T04:15:48;0.30;;;0.00;;
72373;SDS011;60349;64.132;-21.820;2023-04-24T04:18:14;0.32;;;0.00;;
72373;SDS011;60349;64.132;-21.820;2023-04-24T04:20:41;11.45;;;0.45;;
72373;SDS011;60349;64.132;-21.820;2023-04-24T04:23:07;0.73;;;0.00;;
72373;SDS011;60349;64.132;-21.820;2023-04-24T04:25:33;0.40;;;0.00;;
72373;SDS011;60349;64.132;-21.820;2023-04-24T04:27:59;0.20;;;0.00;;
72373;SDS011;60349;64.132;-21.820;2023-04-24T04:30:25;0.35;;;0.00;;
72373;SDS011;60349;64.132;-21.820;2023-04-24T04:32:51;1.52;;;0.00;;
72373;SDS011;60349;64.132;-21.820;2023-04-24T04:35:18;0.00;;;0.00;;
72373;SDS011;60349;64.132;-21.820;2023-04-24T04:37:44;0.25;;;0.00;;
72373;SDS011;60349;64.132;-21.820;2023-04-24T04:40:10;0.90;;;0.00;;
72373;SDS011;60349;64.132;-21.820;2023-04-24T04:42:37;1.17;;;0.00;;
72373;SDS011;60349;64.132;-21.820;2023-04-24T04:45:09;1.05;;;0.00;;
72373;SDS011;60349;64.132;-21.820;2023-04-24T04:47:36;0.35;;;0.00;;
72373;SDS011;60349;64.132;-21.820;2023-04-24T04:50:02;1.65;;;0.00;;
72373;SDS011;60349;64.132;-21.820;2023-04-24T04:52:30;1.02;;;0.00;;
72373;SDS011;60349;64.132;-21.820;2023-04-24T04:54:56;1.02;;;0.00;;
72373;SDS011;60349;64.132;-21.820;2023-04-24T04:57:23;0.20;;;0.00;;
72373;SDS011;60349;64.132;-21.820;2023-04-24T04:59:49;0.90;;;0.00;;
72373;SDS011;60349;64.132;-21.820;2023-04-24T05:02:15;0.00;;;0.00;;
72373;SDS011;60349;64.132;-21.820;2023-04-24T05:04:41;0.85;;;0.00;;
72373;SDS011;60349;64.132;-21.820;2023-04-24T05:07:07;0.50;;;0.00;;
72373;SDS011;60349;64.132;-21.820;2023-04-24T05:09:33;1.75;;;0.00;;
72373;SDS011;60349;64.132;-21.820;2023-04-24T05:11:59;0.90;;;0.10;;
72373;SDS011;60349;64.132;-21.820;2023-04-24T05:14:27;1.25;;;0.00;;
72373;SDS011;60349;64.132;-21.820;2023-04-24T05:16:53;0.30;;;0.00;;
72373;SDS011;60349;64.132;-21.820;2023-04-24T05:19:19;3.72;;;0.00;;
72373;SDS011;60349;64.132;-21.820;2023-04-24T05:21:45;0.47;;;0.00;;
72373;SDS011;60349;64.132;-21.820;2023-04-24T05:24:11;0.50;;;0.00;;
72373;SDS011;60349;64.132;-21.820;2023-04-24T05:26:37;2.20;;;0.00;;
72373;SDS011;60349;64.132;-21.820;2023-04-24T05:29:03;2.53;;;0.00;;
72373;SDS011;60349;64.132;-21.820;2023-04-24T05:31:30;1.35;;;0.00;;
72373;SDS011;60349;64.132;-21.820;2023-04-24T05:33:56;0.77;;;0.00;;
72373;SDS011;60349;64.132;-21.820;2023-04-24T05:36:22;1.40;;;0.00;;
72373;SDS011;60349;64.132;-21.820;2023-04-24T05:38:48;1.23;;;0.00;;
72373;SDS011;60349;64.132;-21.820;2023-04-24T05:41:14;1.05;;;0.00;;
72373;SDS011;60349;64.132;-21.820;2023-04-24T05:43:40;0.55;;;0.00;;
72373;SDS011;60349;64.132;-21.820;2023-04-24T05:46:06;0.40;;;0.00;;
72373;SDS011;60349;64.132;-21.820;2023-04-24T05:48:32;1.55;;;0.00;;
72373;SDS011;60349;64.132;-21.820;2023-04-24T05:50:59;3.08;;;0.00;;
72373;SDS011;60349;64.132;-21.820;2023-04-24T05:53:25;1.95;;;0.00;;
72373;SDS011;60349;64.132;-21.820;2023-04-24T05:55:51;0.45;;;0.00;;
72373;SDS011;60349;64.132;-21.820;2023-04-24T05:58:18;0.43;;;0.00;;
72373;SDS011;60349;64.132;-21.820;2023-04-24T06:00:44;0.93;;;0.00;;
72373;SDS011;60349;64.132;-21.820;2023-04-24T06:03:11;2.00;;;0.08;;
72373;SDS011;60349;64.132;-21.820;2023-04-24T06:05:38;0.10;;;0.00;;
72373;SDS011;60349;64.132;-21.820;2023-04-24T06:08:04;3.08;;;0.00;;
72373;SDS011;60349;64.132;-21.820;2023-04-24T06:10:30;0.38;;;0.00;;
72373;SDS011;60349;64.132;-21.820;2023-04-24T06:12:56;1.52;;;0.00;;
72373;SDS011;60349;64.132;-21.820;2023-04-24T06:15:27;1.83;;;0.08;;
72373;SDS011;60349;64.132;-21.820;2023-04-24T06:17:53;0.82;;;0.10;;
72373;SDS011;60349;64.132;-21.820;2023-04-24T06:20:19;0.20;;;0.00;;
72373;SDS011;60349;64.132;-21.820;2023-04-24T06:22:45;0.73;;;0.00;;
72373;SDS011;60349;64.132;-21.820;2023-04-24T06:25:11;0.40;;;0.00;;
72373;SDS011;60349;64.132;-21.820;2023-04-24T06:27:37;0.40;;;0.00;;
72373;SDS011;60349;64.132;-21.820;2023-04-24T06:30:04;0.75;;;0.00;;
72373;SDS011;60349;64.132;-21.820;2023-04-24T06:32:30;1.55;;;0.00;;
72373;SDS011;60349;64.132;-21.820;2023-04-24T06:34:56;3.05;;;0.00;;
72373;SDS011;60349;64.132;-21.820;2023-04-24T06:37:22;0.52;;;0.00;;
72373;SDS011;60349;64.132;-21.820;2023-04-24T06:39:49;0.45;;;0.00;;
72373;SDS011;60349;64.132;-21.820;2023-04-24T06:42:15;0.30;;;0.00;;
72373;SDS011;60349;64.132;-21.820;2023-04-24T06:44:41;1.75;;;0.00;;
72373;SDS011;60349;64.132;-21.820;2023-04-24T06:47:08;2.10;;;0.00;;
72373;SDS011;60349;64.132;-21.820;2023-04-24T06:49:35;0.20;;;0.00;;
72373;SDS011;60349;64.132;-21.820;2023-04-24T06:52:01;0.68;;;0.00;;
72373;SDS011;60349;64.132;-21.820;2023-04-24T06:54:28;0.40;;;0.00;;
72373;SDS011;60349;64.132;-21.820;2023-04-24T06:56:54;0.75;;;0.00;;
72373;SDS011;60349;64.132;-21.820;2023-04-24T06:59:20;1.23;;;0.00;;
72373;SDS011;60349;64.132;-21.820;2023-04-24T07:01:47;0.10;;;0.00;;
72373;SDS011;60349;64.132;-21.820;2023-04-24T07:04:13;1.60;;;0.20;;
72373;SDS011;60349;64.132;-21.820;2023-04-24T07:06:39;1.65;;;0.10;;
72373;SDS011;60349;64.132;-21.820;2023-04-24T07:09:05;0.45;;;0.03;;
72373;SDS011;60349;64.132;-21.820;2023-04-24T07:11:31;0.17;;;0.00;;
72373;SDS011;60349;64.132;-21.820;2023-04-24T07:13:57;1.02;;;0.00;;
72373;SDS011;60349;64.132;-21.820;2023-04-24T07:16:24;0.95;;;0.10;;
72373;SDS011;60349;64.132;-21.820;2023-04-24T07:18:50;0.43;;;0.00;;
72373;SDS011;60349;64.132;-21.820;2023-04-24T07:21:16;0.85;;;0.00;;
72373;SDS011;60349;64.132;-21.820;2023-04-24T07:23:42;0.28;;;0.00;;
72373;SDS011;60349;64.132;-21.820;2023-04-24T07:26:09;0.40;;;0.03;;
72373;SDS011;60349;64.132;-21.820;2023-04-24T07:28:35;0.90;;;0.00;;
72373;SDS011;60349;64.132;-21.820;2023-04-24T07:31:01;2.03;;;0.13;;
72373;SDS011;60349;64.132;-21.820;2023-04-24T07:33:27;6.07;;;0.10;;
72373;SDS011;60349;64.132;-21.820;2023-04-24T07:35:53;0.45;;;0.00;;
72373;SDS011;60349;64.132;-21.820;2023-04-24T07:38:19;2.13;;;0.10;;
72373;SDS011;60349;64.132;-21.820;2023-04-24T07:40:47;0.63;;;0.00;;
72373;SDS011;60349;64.132;-21.820;2023-04-24T07:43:13;5.15;;;0.10;;
72373;SDS011;60349;64.132;-21.820;2023-04-24T07:45:39;0.98;;;0.00;;
72373;SDS011;60349;64.132;-21.820;2023-04-24T07:48:06;2.80;;;0.10;;
72373;SDS011;60349;64.132;-21.820;2023-04-24T07:50:34;1.92;;;0.05;;
72373;SDS011;60349;64.132;-21.820;2023-04-24T07:53:01;1.38;;;0.10;;
72373;SDS011;60349;64.132;-21.820;2023-04-24T07:55:27;2.05;;;0.52;;
72373;SDS011;60349;64.132;-21.820;2023-04-24T07:57:53;1.30;;;0.00;;
72373;SDS011;60349;64.132;-21.820;2023-04-24T08:00:19;2.00;;;0.10;;
72373;SDS011;60349;64.132;-21.820;2023-04-24T08:02:45;1.73;;;0.10;;
72373;SDS011;60349;64.132;-21.820;2023-04-24T08:05:12;1.80;;;0.00;;
72373;SDS011;60349;64.132;-21.820;2023-04-24T08:07:38;1.92;;;0.10;;
72373;SDS011;60349;64.132;-21.820;2023-04-24T08:10:04;1.48;;;0.15;;
72373;SDS011;60349;64.132;-21.820;2023-04-24T08:12:30;0.70;;;0.00;;
72373;SDS011;60349;64.132;-21.820;2023-04-24T08:14:57;0.50;;;0.00;;
72373;SDS011;60349;64.132;-21.820;2023-04-24T08:17:23;3.30;;;0.05;;
72373;SDS011;60349;64.132;-21.820;2023-04-24T08:19:50;1.65;;;0.00;;
72373;SDS011;60349;64.132;-21.820;2023-04-24T08:22:18;0.75;;;0.00;;
72373;SDS011;60349;64.132;-21.820;2023-04-24T08:24:44;3.17;;;0.10;;
72373;SDS011;60349;64.132;-21.820;2023-04-24T08:27:10;1.27;;;0.35;;
72373;SDS011;60349;64.132;-21.820;2023-04-24T08:29:36;3.65;;;0.50;;
72373;SDS011;60349;64.132;-21.820;2023-04-24T08:32:02;1.10;;;0.10;;
72373;SDS011;60349;64.132;-21.820;2023-04-24T08:34:28;1.83;;;0.00;;
72373;SDS011;60349;64.132;-21.820;2023-04-24T08:36:55;0.77;;;0.10;;
72373;SDS011;60349;64.132;-21.820;2023-04-24T08:39:21;1.05;;;0.10;;
72373;SDS011;60349;64.132;-21.820;2023-04-24T08:41:47;9.60;;;0.20;;
72373;SDS011;60349;64.132;-21.820;2023-04-24T08:44:14;3.42;;;0.90;;
72373;SDS011;60349;64.132;-21.820;2023-04-24T08:46:42;4.90;;;1.17;;
72373;SDS011;60349;64.132;-21.820;2023-04-24T08:49:10;3.58;;;1.27;;
72373;SDS011;60349;64.132;-21.820;2023-04-24T08:51:36;2.70;;;1.30;;
72373;SDS011;60349;64.132;-21.820;2023-04-24T08:54:03;4.90;;;1.58;;
72373;SDS011;60349;64.132;-21.820;2023-04-24T08:56:30;2.70;;;1.65;;
72373;SDS011;60349;64.132;-21.820;2023-04-24T08:58:57;3.50;;;1.33;;
72373;SDS011;60349;64.132;-21.820;2023-04-24T09:01:24;7.13;;;1.83;;
72373;SDS011;60349;64.132;-21.820;2023-04-24T09:03:50;8.13;;;1.42;;
72373;SDS011;60349;64.132;-21.820;2023-04-24T09:06:17;2.30;;;1.02;;
72373;SDS011;60349;64.132;-21.820;2023-04-24T09:08:43;3.63;;;0.70;;
72373;SDS011;60349;64.132;-21.820;2023-04-24T09:11:11;2.90;;;0.82;;
72373;SDS011;60349;64.132;-21.820;2023-04-24T09:13:37;2.22;;;0.82;;
72373;SDS011;60349;64.132;-21.820;2023-04-24T09:16:03;7.38;;;1.90;;
72373;SDS011;60349;64.132;-21.820;2023-04-24T09:18:30;2.00;;;0.90;;
72373;SDS011;60349;64.132;-21.820;2023-04-24T09:23:31;5.10;;;0.70;;
72373;SDS011;60349;64.132;-21.820;2023-04-24T09:25:58;4.68;;;1.15;;
72373;SDS011;60349;64.132;-21.820;2023-04-24T09:28:38;4.50;;;1.30;;
72373;SDS011;60349;64.132;-21.820;2023-04-24T09:33:38;3.72;;;1.13;;
72373;SDS011;60349;64.132;-21.820;2023-04-24T09:36:04;2.92;;;1.25;;
72373;SDS011;60349;64.132;-21.820;2023-04-24T09:38:37;2.70;;;1.30;;
72373;SDS011;60349;64.132;-21.820;2023-04-24T09:41:05;5.35;;;0.85;;
72373;SDS011;60349;64.132;-21.820;2023-04-24T09:43:32;4.18;;;0.90;;
72373;SDS011;60349;64.132;-21.820;2023-04-24T09:45:58;2.67;;;0.93;;
72373;SDS011;60349;64.132;-21.820;2023-04-24T09:48:35;3.08;;;1.20;;
72373;SDS011;60349;64.132;-21.820;2023-04-24T09:51:02;5.43;;;1.23;;
72373;SDS011;60349;64.132;-21.820;2023-04-24T09:53:29;6.63;;;2.60;;
72373;SDS011;60349;64.132;-21.820;2023-04-24T09:55:56;5.32;;;1.92;;
72373;SDS011;60349;64.132;-21.820;2023-04-24T09:58:28;6.63;;;1.45;;
72373;SDS011;60349;64.132;-21.820;2023-04-24T10:00:55;2.67;;;1.45;;
72373;SDS011;60349;64.132;-21.820;2023-04-24T10:03:24;4.13;;;2.35;;
72373;SDS011;60349;64.132;-21.820;2023-04-24T10:05:52;6.50;;;1.02;;
72373;SDS011;60349;64.132;-21.820;2023-04-24T10:08:18;5.18;;;1.42;;
72373;SDS011;60349;64.132;-21.820;2023-04-24T10:10:45;3.83;;;1.40;;
72373;SDS011;60349;64.132;-21.820;2023-04-24T10:13:12;7.65;;;1.42;;
72373;SDS011;60349;64.132;-21.820;2023-04-24T10:15:39;3.90;;;1.15;;
72373;SDS011;60349;64.132;-21.820;2023-04-24T10:18:06;3.33;;;1.27;;
72373;SDS011;60349;64.132;-21.820;2023-04-24T10:20:35;7.50;;;1.00;;
72373;SDS011;60349;64.132;-21.820;2023-04-24T10:23:02;3.85;;;1.02;;
72373;SDS011;60349;64.132;-21.820;2023-04-24T10:25:29;5.53;;;1.20;;
72373;SDS011;60349;64.132;-21.820;2023-04-24T10:27:56;5.07;;;2.17;;
72373;SDS011;60349;64.132;-21.820;2023-04-24T10:30:25;4.22;;;1.50;;
72373;SDS011;60349;64.132;-21.820;2023-04-24T10:32:51;3.05;;;1.65;;
72373;SDS011;60349;64.132;-21.820;2023-04-24T10:35:17;5.15;;;1.83;;
72373;SDS011;60349;64.132;-21.820;2023-04-24T10:37:57;2.55;;;1.88;;
72373;SDS011;60349;64.132;-21.820;2023-04-24T10:40:27;3.83;;;2.08;;
72373;SDS011;60349;64.132;-21.820;2023-04-24T10:42:55;3.88;;;2.78;;
72373;SDS011;60349;64.132;-21.820;2023-04-24T10:45:22;5.38;;;2.65;;
72373;SDS011;60349;64.132;-21.820;2023-04-24T10:47:52;4.63;;;2.05;;
72373;SDS011;60349;64.132;-21.820;2023-04-24T10:50:19;4.15;;;1.90;;
72373;SDS011;60349;64.132;-21.820;2023-04-24T10:52:46;5.15;;;1.90;;
72373;SDS011;60349;64.132;-21.820;2023-04-24T10:55:13;5.55;;;2.63;;
72373;SDS011;60349;64.132;-21.820;2023-04-24T10:57:40;5.25;;;2.55;;
72373;SDS011;60349;64.132;-21.820;2023-04-24T11:00:26;5.15;;;3.08;;
72373;SDS011;60349;64.132;-21.820;2023-04-24T11:02:52;4.80;;;2.85;;
72373;SDS011;60349;64.132;-21.820;2023-04-24T11:05:20;6.65;;;3.05;;
72373;SDS011;60349;64.132;-21.820;2023-04-24T11:10:31;2.83;;;1.92;;
72373;SDS011;60349;64.132;-21.820;2023-04-24T11:12:57;4.90;;;2.17;;
72373;SDS011;60349;64.132;-21.820;2023-04-24T11:15:23;3.42;;;2.00;;
72373;SDS011;60349;64.132;-21.820;2023-04-24T11:17:49;4.57;;;2.47;;
72373;SDS011;60349;64.132;-21.820;2023-04-24T11:20:22;3.65;;;2.83;;
72373;SDS011;60349;64.132;-21.820;2023-04-24T11:22:52;3.80;;;2.10;;
72373;SDS011;60349;64.132;-21.820;2023-04-24T11:25:19;4.43;;;2.70;;
72373;SDS011;60349;64.132;-21.820;2023-04-24T11:27:47;6.82;;;2.72;;
72373;SDS011;60349;64.132;-21.820;2023-04-24T11:30:18;5.53;;;2.20;;
72373;SDS011;60349;64.132;-21.820;2023-04-24T11:32:47;4.15;;;2.80;;
72373;SDS011;60349;64.132;-21.820;2023-04-24T11:35:21;3.00;;;1.90;;
72373;SDS011;60349;64.132;-21.820;2023-04-24T11:37:53;5.05;;;1.67;;
72373;SDS011;60349;64.132;-21.820;2023-04-24T11:40:19;3.83;;;1.40;;
72373;SDS011;60349;64.132;-21.820;2023-04-24T11:42:48;4.57;;;2.38;;
72373;SDS011;60349;64.132;-21.820;2023-04-24T11:45:15;3.72;;;0.95;;
72373;SDS011;60349;64.132;-21.820;2023-04-24T11:47:42;3.35;;;2.05;;
72373;SDS011;60349;64.132;-21.820;2023-04-24T11:50:10;3.45;;;1.00;;
72373;SDS011;60349;64.132;-21.820;2023-04-24T11:52:37;3.30;;;1.70;;
72373;SDS011;60349;64.132;-21.820;2023-04-24T11:55:04;4.45;;;1.90;;
72373;SDS011;60349;64.132;-21.820;2023-04-24T11:57:30;4.00;;;2.95;;
72373;SDS011;60349;64.132;-21.820;2023-04-24T12:00:02;4.43;;;3.08;;
72373;SDS011;60349;64.132;-21.820;2023-04-24T12:02:29;4.88;;;2.40;;
72373;SDS011;60349;64.132;-21.820;2023-04-24T12:04:55;3.22;;;2.08;;
72373;SDS011;60349;64.132;-21.820;2023-04-24T12:07:22;4.50;;;3.58;;
72373;SDS011;60349;64.132;-21.820;2023-04-24T12:09:56;7.18;;;2.72;;
72373;SDS011;60349;64.132;-21.820;2023-04-24T12:12:25;4.05;;;2.28;;
72373;SDS011;60349;64.132;-21.820;2023-04-24T12:14:54;3.38;;;2.08;;
72373;SDS011;60349;64.132;-21.820;2023-04-24T12:17:29;4.65;;;3.38;;
72373;SDS011;60349;64.132;-21.820;2023-04-24T12:19:59;6.00;;;3.00;;
72373;SDS011;60349;64.132;-21.820;2023-04-24T12:22:26;4.30;;;2.25;;
72373;SDS011;60349;64.132;-21.820;2023-04-24T12:24:56;4.47;;;1.80;;
72373;SDS011;60349;64.132;-21.820;2023-04-24T12:27:22;3.13;;;1.75;;
72373;SDS011;60349;64.132;-21.820;2023-04-24T12:29:58;3.17;;;1.40;;
72373;SDS011;60349;64.132;-21.820;2023-04-24T12:32:24;11.35;;;5.55;;
72373;SDS011;60349;64.132;-21.820;2023-04-24T12:34:51;28.27;;;14.73;;
72373;SDS011;60349;64.132;-21.820;2023-04-24T12:37:17;42.20;;;23.27;;
72373;SDS011;60349;64.132;-21.820;2023-04-24T12:42:28;43.33;;;23.73;;
72373;SDS011;60349;64.132;-21.820;2023-04-24T12:45:05;36.50;;;19.33;;
72373;SDS011;60349;64.132;-21.820;2023-04-24T12:47:32;33.90;;;18.40;;
72373;SDS011;60349;64.132;-21.820;2023-04-24T12:49:59;26.23;;;14.75;;
72373;SDS011;60349;64.132;-21.820;2023-04-24T12:52:26;26.75;;;14.30;;
72373;SDS011;60349;64.132;-21.820;2023-04-24T12:54:53;26.08;;;15.18;;
72373;SDS011;60349;64.132;-21.820;2023-04-24T12:57:20;21.23;;;12.55;;
72373;SDS011;60349;64.132;-21.820;2023-04-24T12:59:46;22.70;;;12.60;;
72373;SDS011;60349;64.132;-21.820;2023-04-24T13:02:12;17.58;;;10.65;;
72373;SDS011;60349;64.132;-21.820;2023-04-24T13:04:39;16.05;;;9.10;;
72373;SDS011;60349;64.132;-21.820;2023-04-24T13:07:05;16.50;;;9.18;;
72373;SDS011;60349;64.132;-21.820;2023-04-24T13:09:33;13.50;;;7.53;;
72373;SDS011;60349;64.132;-21.820;2023-04-24T13:12:00;10.35;;;5.03;;
72373;SDS011;60349;64.132;-21.820;2023-04-24T13:14:26;6.85;;;3.88;;
72373;SDS011;60349;64.132;-21.820;2023-04-24T13:16:52;7.57;;;3.10;;
72373;SDS011;60349;64.132;-21.820;2023-04-24T13:19:19;5.63;;;2.42;;
72373;SDS011;60349;64.132;-21.820;2023-04-24T13:21:45;5.80;;;2.70;;
72373;SDS011;60349;64.132;-21.820;2023-04-24T13:24:11;4.15;;;1.85;;
72373;SDS011;60349;64.132;-21.820;2023-04-24T13:26:38;4.25;;;1.48;;
72373;SDS011;60349;64.132;-21.820;2023-04-24T13:29:04;4.97;;;2.55;;
72373;SDS011;60349;64.132;-21.820;2023-04-24T13:31:30;4.35;;;1.10;;
72373;SDS011;60349;64.132;-21.820;2023-04-24T13:33:56;5.10;;;1.48;;
72373;SDS011;60349;64.132;-21.820;2023-04-24T13:36:22;3.65;;;1.10;;
72373;SDS011;60349;64.132;-21.820;2023-04-24T13:38:48;2.90;;;0.82;;
72373;SDS011;60349;64.132;-21.820;2023-04-24T13:41:14;6.15;;;0.93;;
72373;SDS011;60349;64.132;-21.820;2023-04-24T13:43:40;3.28;;;0.68;;
72373;SDS011;60349;64.132;-21.820;2023-04-24T13:46:07;3.35;;;0.63;;
72373;SDS011;60349;64.132;-21.820;2023-04-24T13:48:34;3.47;;;1.10;;
72373;SDS011;60349;64.132;-21.820;2023-04-24T13:51:00;5.95;;;2.33;;
72373;SDS011;60349;64.132;-21.820;2023-04-24T13:53:26;9.55;;;2.67;;
72373;SDS011;60349;64.132;-21.820;2023-04-24T13:55:52;11.95;;;3.30;;
72373;SDS011;60349;64.132;-21.820;2023-04-24T13:58:18;7.68;;;3.67;;
72373;SDS011;60349;64.132;-21.820;2023-04-24T14:00:45;11.15;;;6.10;;
72373;SDS011;60349;64.132;-21.820;2023-04-24T14:03:11;13.60;;;7.38;;
72373;SDS011;60349;64.132;-21.820;2023-04-24T14:05:37;6.28;;;2.70;;
72373;SDS011;60349;64.132;-21.820;2023-04-24T14:08:04;4.60;;;0.98;;
72373;SDS011;60349;64.132;-21.820;2023-04-24T14:10:30;5.07;;;0.47;;
72373;SDS011;60349;64.132;-21.820;2023-04-24T14:12:57;1.67;;;0.55;;
72373;SDS011;60349;64.132;-21.820;2023-04-24T14:15:23;1.42;;;0.40;;
72373;SDS011;60349;64.132;-21.820;2023-04-24T14:17:49;9.20;;;0.55;;
72373;SDS011;60349;64.132;-21.820;2023-04-24T14:20:15;1.67;;;0.30;;
72373;SDS011;60349;64.132;-21.820;2023-04-24T14:22:42;2.35;;;0.20;;
72373;SDS011;60349;64.132;-21.820;2023-04-24T14:25:08;1.30;;;0.10;;
72373;SDS011;60349;64.132;-21.820;2023-04-24T14:27:34;1.52;;;0.20;;
72373;SDS011;60349;64.132;-21.820;2023-04-24T14:30:01;5.35;;;1.25;;